createdAt,value
2019-01-20T00:01:13.552Z,21.67
2019-01-20T00:03:43.753Z,21.07
2019-01-20T00:06:14.099Z,23.53
2019-01-20T00:08:44.245Z,22.93
2019-01-20T00:11:16.740Z,23.93
2019-01-20T00:13:46.327Z,25.67
2019-01-20T00:16:16.695Z,22.23
2019-01-20T00:18:46.874Z,24.23
2019-01-20T00:21:17.072Z,23.13
2019-01-20T00:23:47.345Z,24.57
2019-01-20T00:26:17.530Z,22.40
2019-01-20T00:28:47.766Z,23.57
2019-01-20T00:31:17.981Z,19.33
2019-01-20T00:33:48.232Z,23.20
2019-01-20T00:36:18.422Z,19.80
2019-01-20T00:38:48.542Z,25.13
2019-01-20T00:41:24.010Z,29.33
2019-01-20T00:43:50.910Z,27.37
2019-01-20T00:46:21.093Z,23.23
2019-01-20T00:48:51.175Z,27.03
2019-01-20T00:51:21.868Z,23.97
2019-01-20T00:53:52.215Z,26.90
2019-01-20T00:56:22.394Z,26.67
2019-01-20T00:58:52.566Z,29.93
2019-01-20T01:01:22.747Z,23.20
2019-01-20T01:03:53.001Z,22.97
2019-01-20T01:06:23.186Z,26.97
2019-01-20T01:08:53.418Z,22.07
2019-01-20T01:11:23.566Z,28.00
2019-01-20T01:13:53.838Z,28.00
2019-01-20T01:16:24.004Z,21.47
2019-01-20T01:18:54.192Z,22.93
2019-01-20T01:21:24.450Z,24.50
2019-01-20T01:23:54.590Z,28.40
2019-01-20T01:26:24.844Z,25.97
2019-01-20T01:28:54.976Z,24.23
2019-01-20T01:31:25.066Z,30.30
2019-01-20T01:33:55.295Z,23.67
2019-01-20T01:36:25.482Z,23.47
2019-01-20T01:38:55.656Z,22.47
2019-01-20T01:41:25.880Z,27.43
2019-01-20T01:43:56.056Z,23.70
2019-01-20T01:46:26.216Z,24.67
2019-01-20T01:48:56.571Z,24.50
2019-01-20T01:51:26.727Z,28.17
2019-01-20T01:53:57.190Z,23.97
2019-01-20T01:56:27.436Z,27.17
2019-01-20T01:58:57.628Z,20.93
2019-01-20T02:01:27.825Z,18.53
2019-01-20T02:03:58.029Z,26.43
2019-01-20T02:06:28.230Z,20.10
2019-01-20T02:08:58.379Z,26.50
2019-01-20T02:11:28.546Z,26.77
2019-01-20T02:13:58.704Z,22.47
2019-01-20T02:16:28.800Z,19.33
2019-01-20T02:18:58.922Z,21.97
2019-01-20T02:21:29.059Z,26.37
2019-01-20T02:24:01.623Z,24.53
2019-01-20T02:26:31.834Z,24.23
2019-01-20T02:29:02.008Z,22.20
2019-01-20T02:31:32.100Z,25.07
2019-01-20T02:34:02.262Z,20.07
2019-01-20T02:36:32.425Z,26.77
2019-01-20T02:39:03.601Z,24.43
2019-01-20T02:41:33.784Z,24.30
2019-01-20T02:44:04.194Z,24.93
2019-01-20T02:46:34.448Z,26.83
2019-01-20T02:49:04.926Z,24.90
2019-01-20T02:51:35.192Z,24.90
2019-01-20T02:54:05.355Z,26.10
2019-01-20T02:56:35.462Z,25.77
2019-01-20T02:59:05.949Z,23.30
2019-01-20T03:01:36.029Z,25.97
2019-01-20T03:04:06.301Z,26.50
2019-01-20T03:06:36.529Z,23.33
2019-01-20T03:09:09.354Z,25.57
2019-01-20T03:11:39.557Z,24.57
2019-01-20T03:14:09.752Z,27.67
2019-01-20T03:16:39.851Z,23.73
2019-01-20T03:19:10.143Z,23.67
2019-01-20T03:21:40.368Z,22.20
2019-01-20T03:24:10.523Z,22.63
2019-01-20T03:26:40.701Z,24.53
2019-01-20T03:29:10.872Z,23.30
2019-01-20T03:31:40.995Z,26.57
2019-01-20T03:34:11.531Z,24.97
2019-01-20T03:36:41.620Z,25.00
2019-01-20T03:39:11.804Z,23.30
2019-01-20T03:41:42.592Z,26.37
2019-01-20T03:44:12.795Z,28.97
2019-01-20T03:46:42.958Z,28.07
2019-01-20T03:49:13.152Z,25.93
2019-01-20T03:51:43.251Z,26.07
2019-01-20T03:54:13.343Z,24.47
2019-01-20T03:56:43.503Z,24.17
2019-01-20T03:59:13.738Z,24.33
2019-01-20T04:01:43.903Z,25.50
2019-01-20T04:04:14.101Z,29.40
2019-01-20T04:06:44.255Z,26.80
2019-01-20T04:09:14.676Z,25.23
2019-01-20T04:11:45.704Z,24.10
2019-01-20T04:14:15.956Z,25.20
2019-01-20T04:16:46.142Z,22.63
2019-01-20T04:19:18.234Z,26.10
2019-01-20T04:21:48.302Z,24.60
2019-01-20T04:24:18.475Z,28.03
2019-01-20T04:26:48.679Z,24.53
2019-01-20T04:29:18.827Z,23.70
2019-01-20T04:31:49.109Z,25.00
2019-01-20T04:34:19.277Z,26.07
2019-01-20T04:36:49.392Z,26.77
2019-01-20T04:39:19.620Z,24.87
2019-01-20T04:41:49.750Z,23.53
2019-01-20T04:44:19.909Z,28.60
2019-01-20T04:46:50.200Z,25.50
2019-01-20T04:49:20.425Z,26.67
2019-01-20T04:51:50.607Z,27.17
2019-01-20T04:54:21.057Z,24.40
2019-01-20T04:56:51.221Z,27.20
2019-01-20T04:59:21.335Z,29.20
2019-01-20T05:01:51.518Z,24.07
2019-01-20T05:04:21.696Z,26.83
2019-01-20T05:06:51.873Z,26.17
2019-01-20T05:09:22.049Z,29.43
2019-01-20T05:11:52.449Z,33.90
2019-01-20T05:14:22.585Z,29.37
2019-01-20T05:16:52.874Z,29.43
2019-01-20T05:19:23.181Z,29.10
2019-01-20T05:21:53.312Z,27.73
2019-01-20T05:24:23.387Z,22.80
2019-01-20T05:26:53.496Z,30.97
2019-01-20T05:29:23.665Z,29.13
2019-01-20T05:31:53.839Z,29.20
2019-01-20T05:34:23.918Z,28.77
2019-01-20T05:36:55.969Z,31.00
2019-01-20T05:39:26.309Z,25.93
2019-01-20T05:41:56.502Z,25.97
2019-01-20T05:44:26.883Z,26.43
2019-01-20T05:46:57.152Z,27.77
2019-01-20T05:49:27.306Z,30.23
2019-01-20T05:51:57.419Z,31.07
2019-01-20T05:54:27.588Z,26.40
2019-01-20T05:56:57.706Z,31.00
2019-01-20T05:59:27.791Z,31.37
2019-01-20T06:01:57.957Z,29.87
2019-01-20T06:04:28.085Z,32.00
2019-01-20T06:06:58.416Z,32.30
2019-01-20T06:09:28.680Z,30.87
2019-01-20T06:11:58.933Z,30.17
2019-01-20T06:14:29.103Z,31.60
2019-01-20T06:16:59.274Z,29.07
2019-01-20T06:19:29.381Z,30.77
2019-01-20T06:21:59.515Z,28.83
2019-01-20T06:24:30.873Z,31.13
2019-01-20T06:27:01.054Z,28.97
2019-01-20T06:29:31.151Z,32.03
2019-01-20T06:32:01.291Z,29.10
2019-01-20T06:34:31.471Z,31.23
2019-01-20T06:37:01.589Z,31.37
2019-01-20T06:39:31.740Z,34.37
2019-01-20T06:42:03.133Z,26.40
2019-01-20T06:44:33.338Z,35.07
2019-01-20T06:47:03.635Z,33.77
2019-01-20T06:49:33.728Z,31.00
2019-01-20T06:52:03.917Z,31.23
2019-01-20T06:54:34.021Z,32.63
2019-01-20T06:57:04.211Z,33.50
2019-01-20T06:59:34.399Z,37.50
2019-01-20T07:02:04.938Z,27.60
2019-01-20T07:04:35.327Z,29.10
2019-01-20T07:07:06.265Z,29.23
2019-01-20T07:09:38.620Z,31.20
2019-01-20T07:12:09.358Z,35.97
2019-01-20T07:14:40.108Z,31.57
2019-01-20T07:17:11.393Z,30.13
2019-01-20T07:19:42.641Z,27.23
2019-01-20T07:22:13.587Z,27.60
2019-01-20T07:24:44.662Z,31.00
2019-01-20T07:27:15.864Z,28.83
2019-01-20T07:29:46.908Z,29.17
2019-01-20T07:32:17.789Z,30.23
2019-01-20T07:34:48.586Z,30.27
2019-01-20T07:37:19.721Z,27.17
2019-01-20T07:39:50.903Z,29.97
2019-01-20T07:42:21.981Z,30.93
2019-01-20T07:44:52.474Z,30.27
2019-01-20T07:47:23.519Z,30.73
2019-01-20T07:49:54.054Z,30.47
2019-01-20T07:52:25.111Z,28.17
2019-01-20T07:54:56.675Z,32.93
2019-01-20T07:57:27.644Z,30.57
2019-01-20T07:59:58.341Z,33.57
2019-01-20T08:02:29.173Z,35.17
2019-01-20T08:04:59.860Z,29.00
2019-01-20T08:07:30.865Z,33.50
2019-01-20T08:10:03.384Z,31.10
2019-01-20T08:12:34.438Z,30.93
2019-01-20T08:15:06.853Z,32.87
2019-01-20T08:17:39.114Z,32.00
2019-01-20T08:20:13.435Z,37.40
2019-01-20T08:22:44.469Z,31.20
2019-01-20T08:25:16.209Z,30.50
2019-01-20T08:27:47.261Z,32.43
2019-01-20T08:30:20.703Z,26.20
2019-01-20T08:32:51.861Z,35.10
2019-01-20T08:35:25.867Z,28.33
2019-01-20T08:37:56.967Z,29.23
2019-01-20T08:40:30.529Z,35.83
2019-01-20T08:43:01.549Z,38.40
2019-01-20T08:46:08.107Z,29.20
2019-01-20T08:48:39.190Z,34.93
2019-01-20T08:51:10.204Z,33.10
2019-01-20T08:53:41.356Z,35.97
2019-01-20T08:56:11.959Z,31.97
2019-01-20T08:58:43.049Z,30.00
2019-01-20T09:01:14.322Z,33.20
2019-01-20T09:03:45.387Z,31.20
2019-01-20T09:06:16.204Z,32.57
2019-01-20T09:08:47.084Z,33.83
2019-01-20T09:11:17.905Z,32.13
2019-01-20T09:13:49.264Z,40.40
2019-01-20T09:16:20.046Z,35.90
2019-01-20T09:18:50.874Z,31.13
2019-01-20T09:21:21.972Z,33.67
2019-01-20T09:23:55.082Z,25.67
2019-01-20T09:26:25.858Z,36.87
2019-01-20T09:28:56.747Z,38.93
2019-01-20T09:31:27.576Z,28.13
2019-01-20T09:33:58.852Z,34.00
2019-01-20T09:36:29.856Z,40.97
2019-01-20T09:39:00.854Z,36.40
2019-01-20T09:41:31.930Z,40.80
2019-01-20T09:44:02.924Z,42.27
2019-01-20T09:46:33.926Z,37.57
2019-01-20T09:49:04.760Z,42.80
2019-01-20T09:51:35.712Z,31.03
2019-01-20T09:54:06.581Z,46.70
2019-01-20T09:56:37.110Z,31.83
2019-01-20T09:59:07.891Z,36.83
2019-01-20T10:01:38.780Z,40.03
2019-01-20T10:04:09.343Z,46.80
2019-01-20T10:06:39.854Z,44.87
2019-01-20T10:09:10.778Z,40.03
2019-01-20T10:11:41.626Z,37.97
2019-01-20T10:14:12.060Z,54.30
2019-01-20T10:16:43.972Z,46.53
2019-01-20T10:19:14.563Z,47.57
2019-01-20T10:21:45.199Z,52.43
2019-01-20T10:24:15.682Z,48.40
2019-01-20T10:26:46.564Z,48.17
2019-01-20T10:29:17.159Z,45.80
2019-01-20T10:31:47.886Z,47.30
2019-01-20T10:34:18.670Z,49.07
2019-01-20T10:36:49.609Z,50.13
2019-01-20T10:39:20.359Z,47.73
2019-01-20T10:41:51.217Z,47.40
2019-01-20T10:44:22.058Z,45.10
2019-01-20T10:46:52.625Z,43.03
2019-01-20T10:49:23.076Z,44.53
2019-01-20T10:51:53.555Z,47.73
2019-01-20T10:54:24.250Z,30.57
2019-01-20T10:56:56.077Z,47.37
2019-01-20T10:59:26.525Z,44.27
2019-01-20T11:01:56.945Z,29.33
2019-01-20T11:04:27.551Z,39.97
2019-01-20T11:06:58.464Z,46.70
2019-01-20T11:09:29.338Z,44.33
2019-01-20T11:12:00.468Z,34.33
2019-01-20T11:14:31.232Z,47.10
2019-01-20T11:17:04.667Z,46.10
2019-01-20T11:19:37.038Z,42.57
2019-01-20T11:22:08.252Z,39.40
2019-01-20T11:24:39.319Z,54.80
2019-01-20T11:27:13.274Z,46.63
2019-01-20T11:29:44.084Z,53.67
2019-01-20T11:32:14.750Z,53.37
2019-01-20T11:34:45.774Z,52.73
2019-01-20T11:37:17.278Z,31.37
2019-01-20T11:39:47.802Z,52.43
2019-01-20T11:42:18.890Z,45.03
2019-01-20T11:44:49.590Z,48.87
2019-01-20T11:47:20.938Z,47.80
2019-01-20T11:49:51.985Z,49.07
2019-01-20T11:52:22.936Z,47.13
2019-01-20T11:54:54.878Z,38.63
2019-01-20T11:57:26.224Z,50.10
2019-01-20T11:59:57.342Z,45.73
2019-01-20T12:02:31.372Z,32.57
2019-01-20T12:05:02.488Z,47.10
2019-01-20T12:07:33.538Z,38.33
2019-01-20T12:10:05.662Z,52.47
2019-01-20T12:12:36.877Z,47.33
2019-01-20T12:15:10.099Z,40.33
2019-01-20T12:17:41.265Z,36.30
2019-01-20T12:20:12.519Z,45.73
2019-01-20T12:22:43.667Z,51.70
2019-01-20T12:25:15.961Z,54.47
2019-01-20T12:27:47.127Z,49.83
2019-01-20T12:30:20.769Z,36.70
2019-01-20T12:32:51.972Z,46.97
2019-01-20T12:35:25.418Z,50.43
2019-01-20T12:37:56.197Z,50.63
2019-01-20T12:40:30.314Z,47.03
2019-01-20T12:43:03.649Z,48.20
2019-01-20T12:45:34.587Z,49.40
2019-01-20T12:48:07.449Z,58.47
2019-01-20T12:50:39.306Z,63.63
2019-01-20T12:53:10.281Z,55.03
2019-01-20T12:55:41.318Z,57.03
2019-01-20T12:58:12.489Z,50.53
2019-01-20T13:00:43.347Z,51.30
2019-01-20T13:03:14.451Z,50.93
2019-01-20T13:05:45.269Z,45.37
2019-01-20T13:08:16.043Z,45.10
2019-01-20T13:10:46.955Z,36.33
2019-01-20T13:13:18.038Z,55.10
2019-01-20T13:15:48.989Z,50.97
2019-01-20T13:18:23.106Z,52.43
2019-01-20T13:20:54.086Z,36.07
2019-01-20T13:23:25.481Z,53.20
2019-01-20T13:25:56.437Z,43.47
2019-01-20T13:28:27.254Z,52.13
2019-01-20T13:30:58.499Z,49.17
2019-01-20T13:33:29.775Z,56.60
2019-01-20T13:36:07.163Z,51.70
2019-01-20T13:38:34.189Z,54.80
2019-01-20T13:41:12.375Z,54.20
2019-01-20T13:43:43.499Z,49.73
2019-01-20T13:46:14.378Z,51.67
2019-01-20T13:48:45.593Z,48.40
2019-01-20T13:51:16.585Z,48.73
2019-01-20T13:53:47.929Z,53.80
2019-01-20T13:56:18.668Z,51.40
2019-01-20T13:58:49.571Z,51.20
2019-01-20T14:01:20.431Z,47.43
2019-01-20T14:03:51.286Z,54.73
2019-01-20T14:06:22.807Z,52.83
2019-01-20T14:08:53.809Z,52.03
2019-01-20T14:11:24.785Z,45.27
2019-01-20T14:13:55.446Z,46.10
2019-01-20T14:16:26.564Z,57.20
2019-01-20T14:18:57.291Z,48.50
2019-01-20T14:21:28.272Z,53.43
2019-01-20T14:23:59.026Z,51.27
2019-01-20T14:26:30.831Z,45.00
2019-01-20T14:29:01.321Z,48.73
2019-01-20T14:31:32.085Z,45.60
2019-01-20T14:34:03.345Z,43.13
2019-01-20T14:36:34.323Z,45.60
2019-01-20T14:39:08.688Z,44.50
2019-01-20T14:41:39.531Z,47.17
2019-01-20T14:44:11.026Z,54.73
2019-01-20T14:46:42.037Z,45.67
2019-01-20T14:49:13.183Z,43.77
2019-01-20T14:51:44.080Z,50.40
2019-01-20T14:54:17.864Z,44.57
2019-01-20T14:56:48.781Z,46.70
2019-01-20T14:59:20.971Z,45.20
2019-01-20T15:01:52.235Z,50.33
2019-01-20T15:04:23.511Z,48.13
2019-01-20T15:06:55.087Z,54.47
2019-01-20T15:09:26.343Z,48.47
2019-01-20T15:11:58.154Z,47.13
2019-01-20T15:14:30.188Z,43.57
2019-01-20T15:17:01.202Z,43.03
2019-01-20T15:19:35.110Z,49.07
2019-01-20T15:22:06.170Z,46.17
2019-01-20T15:24:36.916Z,48.70
2019-01-20T15:27:10.721Z,52.70
2019-01-20T15:29:40.774Z,48.83
2019-01-20T15:32:11.451Z,43.10
2019-01-20T15:34:43.257Z,48.07
2019-01-20T15:37:13.710Z,41.17
2019-01-20T15:39:44.538Z,43.20
2019-01-20T15:42:15.141Z,47.70
2019-01-20T15:44:46.106Z,46.67
2019-01-20T15:47:18.260Z,44.03
2019-01-20T15:49:53.572Z,49.23
2019-01-20T15:52:24.352Z,45.30
2019-01-20T15:54:54.879Z,46.87
2019-01-20T15:57:26.431Z,40.33
2019-01-20T15:59:57.071Z,47.47
2019-01-20T16:02:27.760Z,46.63
2019-01-20T16:04:58.087Z,46.97
2019-01-20T16:07:30.626Z,47.70
2019-01-20T16:10:00.960Z,44.97
2019-01-20T16:12:31.225Z,48.07
2019-01-20T16:15:01.559Z,44.53
2019-01-20T16:17:31.743Z,45.17
2019-01-20T16:20:02.005Z,47.40
2019-01-20T16:22:32.288Z,47.73
2019-01-20T16:25:02.594Z,45.03
2019-01-20T16:27:32.858Z,46.47
2019-01-20T16:30:03.147Z,44.63
2019-01-20T16:32:33.641Z,46.47
2019-01-20T16:35:04.727Z,45.67
2019-01-20T16:37:36.736Z,41.30
2019-01-20T16:40:07.975Z,44.73
2019-01-20T16:42:38.372Z,42.40
2019-01-20T16:45:10.472Z,43.43
2019-01-20T16:47:41.194Z,48.13
2019-01-20T16:50:14.640Z,48.67
2019-01-20T16:52:46.750Z,41.87
2019-01-20T16:55:17.426Z,43.73
2019-01-20T16:57:47.842Z,46.40
2019-01-20T17:00:23.466Z,45.50
2019-01-20T17:02:54.025Z,44.43
2019-01-20T17:05:26.748Z,45.90
2019-01-20T17:07:57.442Z,46.93
2019-01-20T17:10:36.264Z,48.73
2019-01-20T17:13:07.849Z,43.67
2019-01-20T17:15:40.898Z,49.00
2019-01-20T17:18:13.406Z,48.33
2019-01-20T17:20:44.062Z,47.70
2019-01-20T17:23:14.310Z,45.43
2019-01-20T17:25:44.458Z,41.73
2019-01-20T17:28:14.606Z,46.57
2019-01-20T17:30:46.734Z,45.33
2019-01-20T17:33:17.018Z,46.80
2019-01-20T17:35:47.314Z,45.57
2019-01-20T17:38:17.613Z,43.00
2019-01-20T17:40:48.034Z,46.90
2019-01-20T17:43:18.373Z,45.57
2019-01-20T17:45:50.026Z,44.70
2019-01-20T17:48:20.635Z,48.07
2019-01-20T17:50:50.839Z,47.63
2019-01-20T17:53:21.056Z,51.03
2019-01-20T17:55:51.367Z,51.47
2019-01-20T17:58:21.576Z,48.70
2019-01-20T18:00:56.289Z,47.27
2019-01-20T18:03:26.567Z,46.73
2019-01-20T18:05:56.810Z,50.77
2019-01-20T18:08:26.949Z,48.33
2019-01-20T18:10:57.794Z,45.17
2019-01-20T18:13:28.017Z,47.87
2019-01-20T18:15:58.202Z,47.97
2019-01-20T18:18:28.426Z,54.33
2019-01-20T18:20:58.569Z,52.80
2019-01-20T18:23:28.873Z,45.43
2019-01-20T18:25:59.104Z,47.87
2019-01-20T18:28:29.275Z,48.73
2019-01-20T18:30:59.508Z,45.60
2019-01-20T18:33:29.613Z,44.20
2019-01-20T18:35:59.968Z,49.17
2019-01-20T18:38:30.230Z,54.00
2019-01-20T18:41:00.526Z,42.07
2019-01-20T18:43:30.885Z,43.17
2019-01-20T18:46:02.094Z,45.93
2019-01-20T18:48:34.947Z,45.37
2019-01-20T18:51:05.288Z,45.57
2019-01-20T18:53:35.668Z,43.00
2019-01-20T18:56:09.455Z,47.17
2019-01-20T18:58:39.947Z,44.60
2019-01-20T19:01:13.365Z,45.13
2019-01-20T19:03:43.595Z,48.73
2019-01-20T19:06:13.819Z,45.07
2019-01-20T19:08:44.155Z,51.87
2019-01-20T19:11:14.414Z,45.30
2019-01-20T19:13:45.174Z,40.10
2019-01-20T19:16:15.507Z,46.37
2019-01-20T19:18:45.727Z,46.70
2019-01-20T19:21:16.160Z,44.70
2019-01-20T19:23:46.481Z,48.13
2019-01-20T19:26:16.705Z,45.83
2019-01-20T19:28:48.479Z,43.63
2019-01-20T19:31:18.679Z,48.23
2019-01-20T19:33:48.997Z,45.83
2019-01-20T19:36:22.427Z,45.50
2019-01-20T19:38:54.567Z,42.73
2019-01-20T19:41:24.601Z,45.87
2019-01-20T19:43:55.175Z,44.07
2019-01-20T19:46:25.604Z,46.03
2019-01-20T19:48:56.011Z,51.97
2019-01-20T19:51:26.404Z,44.23
2019-01-20T19:53:57.507Z,48.30
2019-01-20T19:56:28.078Z,50.30
2019-01-20T19:58:58.523Z,46.50
2019-01-20T20:01:30.891Z,51.50
2019-01-20T20:04:01.115Z,46.33
2019-01-20T20:06:31.396Z,47.10
2019-01-20T20:09:01.795Z,53.20
2019-01-20T20:11:35.096Z,46.80
2019-01-20T20:14:05.569Z,50.70
2019-01-20T20:16:35.958Z,50.37
2019-01-20T20:19:06.514Z,44.77
2019-01-20T20:21:36.969Z,44.60
2019-01-20T20:24:07.407Z,44.97
2019-01-20T20:26:37.799Z,42.97
2019-01-20T20:29:10.121Z,43.93
2019-01-20T20:31:40.555Z,45.23
2019-01-20T20:34:11.127Z,44.53
2019-01-20T20:36:43.585Z,46.70
2019-01-20T20:39:17.047Z,45.33
2019-01-20T20:41:50.333Z,46.53
2019-01-20T20:44:20.914Z,45.83
2019-01-20T20:46:51.511Z,50.63
2019-01-20T20:49:21.957Z,47.43
2019-01-20T20:51:52.573Z,48.33
2019-01-20T20:54:22.900Z,50.00
2019-01-20T20:56:53.528Z,50.30
2019-01-20T20:59:24.843Z,50.57
2019-01-20T21:01:55.471Z,51.37
2019-01-20T21:04:25.829Z,48.63
2019-01-20T21:06:56.174Z,51.03
2019-01-20T21:09:26.574Z,47.47
2019-01-20T21:11:56.829Z,47.63
2019-01-20T21:14:27.082Z,50.07
2019-01-20T21:16:57.425Z,59.90
2019-01-20T21:19:27.670Z,52.37
2019-01-20T21:21:57.907Z,46.90
2019-01-20T21:24:28.711Z,50.37
2019-01-20T21:26:58.996Z,46.70
2019-01-20T21:29:29.294Z,48.47
2019-01-20T21:31:59.731Z,53.00
2019-01-20T21:34:29.932Z,55.57
2019-01-20T21:37:00.202Z,53.03
2019-01-20T21:39:30.628Z,51.63
2019-01-20T21:42:00.935Z,51.20
2019-01-20T21:44:31.273Z,59.20
2019-01-20T21:47:01.929Z,52.00
2019-01-20T21:49:32.422Z,52.27
2019-01-20T21:52:02.938Z,49.73
2019-01-20T21:54:33.227Z,55.30
2019-01-20T21:57:03.484Z,53.67
2019-01-20T21:59:33.999Z,51.77
2019-01-20T22:02:04.290Z,50.40
2019-01-20T22:04:34.494Z,57.87
2019-01-20T22:07:04.857Z,53.83
2019-01-20T22:09:35.118Z,55.83
2019-01-20T22:12:05.227Z,50.43
2019-01-20T22:14:35.538Z,54.30
2019-01-20T22:17:11.022Z,53.40
2019-01-20T22:19:41.283Z,57.03
2019-01-20T22:22:11.488Z,58.90
2019-01-20T22:24:41.989Z,55.33
2019-01-20T22:27:12.162Z,60.77
2019-01-20T22:29:42.441Z,68.00
2019-01-20T22:32:13.084Z,59.07
2019-01-20T22:34:43.340Z,53.40
2019-01-20T22:37:13.568Z,56.13
2019-01-20T22:39:43.876Z,55.60
2019-01-20T22:42:14.204Z,49.60
2019-01-20T22:44:44.604Z,59.43
2019-01-20T22:47:15.212Z,56.30
2019-01-20T22:49:45.804Z,63.10
2019-01-20T22:52:16.500Z,76.97
2019-01-20T22:54:47.430Z,66.17
2019-01-20T22:57:17.959Z,52.10
2019-01-20T22:59:48.214Z,58.23
2019-01-20T23:02:18.503Z,55.70
2019-01-20T23:04:48.679Z,56.40
2019-01-20T23:07:18.900Z,56.33
2019-01-20T23:09:49.460Z,47.97
2019-01-20T23:12:19.836Z,54.87
2019-01-20T23:14:50.119Z,53.27
2019-01-20T23:17:20.870Z,47.83
2019-01-20T23:19:51.098Z,60.30
2019-01-20T23:22:21.355Z,61.60
2019-01-20T23:24:51.471Z,55.10
2019-01-20T23:27:21.799Z,60.90
2019-01-20T23:29:52.016Z,59.90
2019-01-20T23:32:22.204Z,59.23
2019-01-20T23:34:52.357Z,60.03
2019-01-20T23:37:22.659Z,59.63
2019-01-20T23:39:53.257Z,57.60
2019-01-20T23:42:23.694Z,58.50
2019-01-20T23:44:54.148Z,59.80
2019-01-20T23:47:25.486Z,59.80
2019-01-20T23:49:55.700Z,52.00
2019-01-20T23:52:27.390Z,58.50
2019-01-20T23:54:57.619Z,57.27
2019-01-20T23:57:27.914Z,58.27
2019-01-20T23:59:58.204Z,57.27
